x

Central Aleutians 230nm Sw Dutch Harbor (46072) Wave Buoy

5:50 - Mon 22nd Sep 2014 All times are UTC.

  • Sig Wave height 7.2ft
  • Peak Period 12s
  • Average Period 7s
  • Wind
    11mph, 13mph gusts
  • Sea Temp 50°f
  • Aire Temp 51°f
  • Sea Pressure 1007.2mb

More Historic Weather Station data

Upgrade to MSW Pro to gain access to the past 30 days of data for over 8000 Wavebouys and Weather Stations around the globe.

Join Pro

Comparision Forecast

View Surf forecast
   
lun 09/22 5:50 7ft 12s 7s 11 13 mph 1007.2mb 50f 51f
4:50 7.5ft 13s 7s 13 16 mph 1007mb 50f 51f
3:50 8ft 12s 7s 13 16 mph 1006.9mb 49f 51f
2:50 8ft 12s 7s 13 16 mph 1007mb 50f 51f
1:50 8ft 13s 7s 13 20 mph 1007.2mb 50f 51f
12:50 8ft 12s 7s 13 16 mph 1007.3mb 51f 51f
dom 09/21 11:50 8ft 11s 7s 11 13 mph 1007.6mb 51f 51f
10:50 8ft 12s 7s 13 18 mph 1008mb 51f 51f
9:50 7.5ft 13s 7s 13 18 mph 1008.1mb 50f 51f
8:50 7ft 12s 6s 18 20 mph 1008.3mb 50f 51f
7:50 7ft 13s 7s 18 22 mph 1008.5mb 50f 50f
6:50 7ft 13s 7s 16 18 mph 1008.5mb 50f 51f
5:50 7ft 13s 7s 11 13 mph 1008.4mb 51f 51f
4:50 6.5ft 13s 6s 13 16 mph 1008.3mb 50f 51f
3:50 6ft 14s 6s 13 16 mph 1008.3mb 50f 51f
2:50 6ft 9s 7s 13
mph
1008.7mb 50f 51f
1:50 5.5ft 14s 7s 13 16 mph 1008.9mb 49f 51f
12:50 5ft 15s 7s 13 16 mph 1009.3mb 48f 51f
11:50 5ft 15s 7s 11 13 mph 1009.5mb 49f 51f
10:50 4ft 15s 6s 13 16 mph 1009.6mb 49f 51f
9:50 3.5ft 15s 6s 11 13 mph 1009.7mb 50f 51f
8:50 3.5ft 12s 6s 11 13 mph 1010.1mb 50f 51f
7:50 3.5ft 8s 5s 11 13 mph 1010.3mb 50f 51f
6:50 3.5ft 8s 6s 9 11 mph 1010.5mb 50f 51f
5:50 3.5ft 8s 6s 9 11 mph 1010.4mb 50f 51f
4:50 3.5ft 8s 6s 9 11 mph 1010.3mb 51f 51f
3:50 3.5ft 8s 6s 9 11 mph 1010.5mb 50f 51f
2:50 3.5ft 8s 7s 11 13 mph 1010.6mb 51f 51f
1:50 2.5ft 8s 5s 9 11 mph 1010.8mb 50f 51f
12:50 2.5ft 15s 6s 11 13 mph 1011.1mb 50f 51f
sáb 09/20 11:50 3ft 15s 6s 9 11 mph 1011.6mb 50f 51f
10:50 3ft 9s 7s 9 11 mph 1012.2mb 50f 51f
9:50 3.5ft 8s 7s 7 9 mph 1012.8mb 50f 51f
8:50 3.5ft 9s 6s 7
mph
1012.7mb 50f 50f
7:50 4ft 8s 6s 4 7 mph 1012.6mb 50f 50f
6:50 4.5ft 8s 6s 4
mph
1012.8mb 50f 50f
5:50 4.5ft 9s 6s 4
mph
1012.7mb 50f 50f
4:50 4.5ft 8s 7s 4 9 mph 1012.8mb 50f 49f
3:50 5ft 8s 7s 4 7 mph 1012.9mb 50f 49f
2:50 4.5ft 9s 7s 4 7 mph 1013.1mb 50f 50f
1:50 4.5ft 9s 7s 7 9 mph 1013.6mb 50f 50f
12:50 4.5ft 9s 7s 4 7 mph 1013.9mb 50f 49f
11:50 4.5ft 9s 6s 2 4 mph 1014.1mb 50f 49f
10:50 5ft 9s 6s 2
mph
1014.2mb 50f 49f
9:50 5ft 9s 6s 4 7 mph 1014.4mb 50f 48f
8:50 5.5ft 8s 6s 4
mph
1015mb 50f 48f
7:50 6ft 8s 6s 4 7 mph 1014.8mb 50f 48f
6:50 5.5ft 8s 6s 4 7 mph 1014.6mb 50f 48f
5:50 6ft 8s 7s 7 11 mph 1014.7mb 50f 49f
4:50 5.5ft 9s 6s 4 7 mph 1014.6mb 50f 48f
3:50 6ft 9s 7s 7 9 mph 1014.7mb 50f 48f
2:50 6ft 9s 7s 7
mph
1014.3mb 49f 48f
1:50 5.5ft 9s 7s 9 11 mph 1014.2mb 47f 48f
12:50 5.5ft 9s 7s 11
mph
1014.3mb 47f 48f
vie 09/19 11:50 5.5ft 8s 6s 11 13 mph 1014.5mb 47f 48f
10:50 6ft 9s 7s 11 13 mph 1014.7mb 47f 48f
9:50 6.5ft 10s 6s 9 11 mph 1014.6mb 47f 48f
8:50 6.5ft 7s 6s 13 16 mph 1014.3mb 46f 49f
7:50 6.5ft 8s 6s 11 13 mph 1014.3mb 47f 49f
6:50 7ft 8s 6s 9 11 mph 1014.2mb 49f 49f
5:50 8ft 8s 6s 11 13 mph 1013.8mb 49f 49f
4:50 8ft 9s 6s 20 25 mph 1012.7mb 49f 49f
3:50 8ft 8s 6s 16 18 mph 1012.9mb 49f 49f
2:50 8ft 9s 6s 11 16 mph 1013mb 49f 49f
1:50 7ft 9s 6s 16 18 mph 1012.4mb 49f 49f
12:50 7ft 9s 6s 18 22 mph 1011.9mb 49f 48f
11:50 7.5ft 7s 6s 16 18 mph 1011.9mb 49f 48f
10:50 7ft 8s 6s 16 20 mph 1011.4mb 49f 48f
9:50 8.5ft 8s 6s 22 27 mph 1011mb 49f 49f
8:50 8.5ft 9s 6s 20 25 mph 1010.8mb 49f 49f
7:50 8.5ft 7s 6s 22 27 mph 1010.3mb 49f 49f
6:50 9ft 8s 6s 20 25 mph 1010mb 48f 48f
5:50 8ft 8s 6s 20 27 mph 1009.4mb 47f 48f
4:50 8ft 8s 6s 20 25 mph 1008.7mb 46f 48f
3:50 8ft 8s 6s 18 22 mph 1008.3mb 46f 48f
2:50 7.5ft 7s 6s 20 22 mph 1007.9mb 45f 47f
1:50 6.5ft 8s 6s 13 16 mph 1007.8mb 45f 47f
12:50 6.5ft 9s 6s 18 20 mph 1007.4mb 45f 47f
jue 09/18 11:50 6.5ft 9s 6s 18 20 mph 1007.6mb 45f 47f
10:50 6ft 8s 6s 18 22 mph 1007.5mb 46f 48f
9:50 6ft 9s 5s 20 27 mph 1007.4mb 47f 48f
8:50 6ft 8s 5s 22 27 mph 1007.4mb 47f 48f
7:50 6ft 8s 5s 18 22 mph 1007.4mb 47f 48f
6:50 7ft 9s 6s 16 22 mph 1007.5mb 47f 48f
5:50 7ft 9s 6s 16 20 mph 1007.6mb 48f 48f
4:50 7.5ft 9s 6s 18 22 mph 1007.2mb 48f 48f
3:50 7ft 6s 6s 16 20 mph 1007.1mb 48f 48f
2:50 6ft 6s 5s 16 20 mph 1007mb 48f 47f
1:50 6ft 6s 6s 18 20 mph 1006.7mb 48f 47f
12:50 5.5ft 10s 6s 16 20 mph 1006.6mb 47f 48f
11:50 5ft 11s 6s 13 18 mph 1006.9mb 46f 48f
10:50 5ft 9s 5s 18 20 mph 1006.6mb 46f 48f
9:50 5ft 11s 5s 18 20 mph 1006.7mb 46f 48f
8:50 5ft 11s 5s 20 25 mph 1006.5mb 48f 49f
7:50 5ft 11s 5s 18 22 mph 1005.8mb 49f 49f
6:50 5.5ft 10s 6s 18 22 mph 1005.3mb 49f 49f